Observations for EXETER AIRPORT, United Kingdom (EGTE)

EGTE 191320Z 21013KT 9999 SCT042 11/05 Q1018
EGTE 191250Z 21011KT 9999 SCT038 11/06 Q1019
EGTE 191220Z 20013KT 9999 SCT028 11/05 Q1019
EGTE 191150Z 19012KT 9999 SCT025 09/05 Q1019
EGTE 191120Z 21010KT 9999 SCT020 12/07 Q1019
EGTE 191050Z 21011KT 9999 FEW037 10/06 Q1019
EGTE 191020Z 22009KT 9999 FEW037 10/06 Q1019
EGTE 190950Z 22006KT 9999 FEW035 08/06 Q1019
EGTE 190920Z 21005KT CAVOK 06/05 Q1019  
EGTE 190850Z 18003KT CAVOK 03/03 Q1019  
EGTE 190820Z 20003KT 9999 FEW035 03/02 Q1019
EGTE 190750Z 18003KT 9999 FEW035 02/02 Q1019
EGTE 190720Z 18003KT 9999 FEW035 01/01 Q1019
EGTE 190650Z 18004KT 9999 FEW030 01/00 Q1019
EGTE 190620Z 19003KT CAVOK 00/00 Q1018  
EGTE 190550Z 00000KT CAVOK 01/01 Q1018  
EGTE 190150Z 21004KT CAVOK 05/03 Q1018  
EGTE 190120Z 20006KT CAVOK 05/03 Q1018  
EGTE 190050Z 20006KT CAVOK 04/03 Q1018  
EGTE 190020Z 21006KT CAVOK 03/02 Q1018  
EGTE 182350Z 18006KT CAVOK 03/02 Q1018  
EGTE 182320Z 20005KT CAVOK 05/03 Q1018  
EGTE 182250Z 20006KT CAVOK 04/02 Q1017  
EGTE 182220Z 19005KT CAVOK 05/02 Q1017  
EGTE 182150Z 20007KT CAVOK 06/04 Q1017  
EGTE 182120Z 20007KT CAVOK 06/03 Q1017  
EGTE 182050Z 20006KT CAVOK 06/03 Q1017  
EGTE 182020Z 21007KT CAVOK 06/03 Q1017  
EGTE 181950Z 20006KT CAVOK 07/03 Q1017  
EGTE 181920Z 21007KT CAVOK 08/04 Q1016  
EGTE 181850Z 23005KT CAVOK 07/02 Q1016  
EGTE 181820Z 26004KT CAVOK 07/02 Q1016  
EGTE 181750Z VRB02KT CAVOK 08/03 Q1015  
EGTE 181720Z 28008KT 250V310 9999 FEW040 09/03 Q1015
EGTE 181650Z 27008KT 250V320 9999 FEW040 10/03 Q1015
EGTE 181620Z 28010KT 9999 FEW040 11/03 Q1014
EGTE 181550Z 29008KT 260V330 9999 FEW035 11/03 Q1014
EGTE 181520Z 30010KT 260V330 9999 FEW035 12/04 Q1014
EGTE 181450Z 28007KT 240V310 9999 FEW035 11/04 Q1014
EGTE 181420Z 29009KT 9999 FEW035 11/05 Q1014
EGTE 181350Z 27007KT 240V310 9999 FEW025 SCT048 11/06 Q1014 
EGTE 181320Z 26005KT 240V300 9999 FEW025 SCT048 10/08 Q1014 
EGTE 181250Z 26008KT 9999 -SHRA SCT025 10/08 Q1014